createdAt,value
2017-02-26T00:02:21.377Z,37.3
2017-02-26T00:04:53.847Z,37.2
2017-02-26T00:07:26.767Z,37.2
2017-02-26T00:09:59.676Z,37.2
2017-02-26T00:12:32.146Z,37.2
2017-02-26T00:15:05.070Z,37.2
2017-02-26T00:17:37.565Z,37.2
2017-02-26T00:20:10.055Z,37.2
2017-02-26T00:22:42.533Z,37.2
2017-02-26T00:25:15.013Z,37.3
2017-02-26T00:27:47.494Z,37.3
2017-02-26T00:30:20.008Z,37.2
2017-02-26T00:32:52.502Z,37.2
2017-02-26T00:35:24.977Z,37.2
2017-02-26T00:37:57.474Z,37.2
2017-02-26T00:40:30.397Z,37.2
2017-02-26T00:43:03.309Z,37.2
2017-02-26T00:45:35.803Z,37.2
2017-02-26T00:48:08.707Z,37.2
2017-02-26T00:50:41.198Z,37.2
2017-02-26T00:53:13.680Z,37.2
2017-02-26T00:55:46.153Z,37.2
2017-02-26T00:58:18.632Z,37.2
2017-02-26T01:00:51.142Z,37.2
2017-02-26T01:03:23.622Z,37.2
2017-02-26T01:05:56.106Z,37.3
2017-02-26T01:08:28.779Z,37.2
2017-02-26T01:11:01.274Z,37.2
2017-02-26T01:13:33.758Z,37.2
2017-02-26T01:16:06.254Z,37.2
2017-02-26T01:18:38.743Z,37.2
2017-02-26T01:21:11.222Z,37.2
2017-02-26T01:23:43.716Z,37.2
2017-02-26T01:26:16.198Z,37.2
2017-02-26T01:28:48.684Z,37.2
2017-02-26T01:31:21.192Z,37.2
2017-02-26T01:33:54.092Z,37.2
2017-02-26T01:36:26.595Z,37.2
2017-02-26T01:38:59.095Z,37.2
2017-02-26T01:41:31.601Z,37.2
2017-02-26T01:44:04.091Z,37.2
2017-02-26T01:46:36.577Z,37.2
2017-02-26T01:49:09.089Z,37.2
2017-02-26T01:51:42.019Z,37.2
2017-02-26T01:54:14.514Z,37.2
2017-02-26T01:56:46.999Z,37.2
2017-02-26T01:59:19.470Z,37.2
2017-02-26T02:01:51.962Z,37.2
2017-02-26T02:04:24.457Z,37.2
2017-02-26T02:06:57.378Z,37.1
2017-02-26T02:09:30.312Z,37.2
2017-02-26T02:12:02.809Z,37.2
2017-02-26T02:14:35.704Z,37.2
2017-02-26T02:17:08.195Z,37.2
2017-02-26T02:19:40.728Z,37.2
2017-02-26T02:22:13.203Z,37.2
2017-02-26T02:24:45.705Z,37.2
2017-02-26T02:27:18.208Z,37.2
2017-02-26T02:29:50.709Z,37.2
2017-02-26T02:32:23.194Z,37.2
2017-02-26T02:34:55.682Z,37.2
2017-02-26T02:37:28.161Z,37.1
2017-02-26T02:40:01.056Z,37.2
2017-02-26T02:42:33.970Z,37.1
2017-02-26T02:45:06.479Z,37
2017-02-26T02:47:38.991Z,37.1
2017-02-26T02:50:11.451Z,37.1
2017-02-26T02:52:43.946Z,37.1
2017-02-26T02:55:16.846Z,37.1
2017-02-26T02:57:49.348Z,37.2
2017-02-26T03:00:21.834Z,37.1
2017-02-26T03:02:54.308Z,37.1
2017-02-26T03:05:26.807Z,37.1
2017-02-26T03:07:59.320Z,37.1
2017-02-26T03:10:32.245Z,37.1
2017-02-26T03:13:04.728Z,37
2017-02-26T03:15:37.651Z,37.1
2017-02-26T03:18:10.562Z,37.1
2017-02-26T03:20:43.045Z,37
2017-02-26T03:23:15.527Z,37.1
2017-02-26T03:25:48.056Z,37.1
2017-02-26T03:28:20.541Z,37.1
2017-02-26T03:30:53.053Z,37.1
2017-02-26T03:33:25.565Z,37.2
2017-02-26T03:35:58.465Z,37.1
2017-02-26T03:38:30.966Z,37.2
2017-02-26T03:41:03.455Z,37.1
2017-02-26T03:43:35.943Z,37
2017-02-26T03:46:08.424Z,37.2
2017-02-26T03:48:40.950Z,37.1
2017-02-26T03:51:13.470Z,37
2017-02-26T03:53:45.961Z,37.2
2017-02-26T03:56:18.875Z,37
2017-02-26T03:58:51.386Z,37.1
2017-02-26T04:01:23.922Z,37.1
2017-02-26T04:03:56.416Z,37
2017-02-26T04:06:28.894Z,37
2017-02-26T04:09:01.388Z,37
2017-02-26T04:11:33.886Z,37.1
2017-02-26T04:14:06.802Z,37
2017-02-26T04:16:39.288Z,37
2017-02-26T04:19:11.781Z,37
2017-02-26T04:21:44.889Z,37
2017-02-26T04:24:17.385Z,37
2017-02-26T04:26:49.860Z,37
2017-02-26T04:29:22.342Z,37
2017-02-26T04:31:55.243Z,37
2017-02-26T04:34:27.728Z,37
2017-02-26T04:37:00.216Z,37
2017-02-26T04:39:32.721Z,37
2017-02-26T04:42:05.643Z,37
2017-02-26T04:44:38.562Z,37
2017-02-26T04:47:11.042Z,37
2017-02-26T04:49:43.935Z,37
2017-02-26T04:52:16.871Z,37
2017-02-26T04:54:49.773Z,36.9
2017-02-26T04:57:22.275Z,36.9
2017-02-26T04:59:55.190Z,37
2017-02-26T05:02:27.689Z,36.9
2017-02-26T05:05:00.607Z,36.9
2017-02-26T05:07:33.940Z,37
2017-02-26T05:10:06.417Z,37
2017-02-26T05:12:38.918Z,36.9
2017-02-26T05:15:12.261Z,36.9
2017-02-26T05:17:44.740Z,37
2017-02-26T05:20:17.232Z,37
2017-02-26T05:22:49.725Z,37
2017-02-26T05:25:22.222Z,37.1
2017-02-26T05:27:54.709Z,37.1
2017-02-26T05:30:27.232Z,37.1
2017-02-26T05:32:59.714Z,37.1
2017-02-26T05:35:32.351Z,37.1
2017-02-26T05:38:04.876Z,37
2017-02-26T05:40:37.342Z,36.9
2017-02-26T05:43:09.815Z,37
2017-02-26T05:45:42.302Z,37.1
2017-02-26T05:48:14.795Z,37.1
2017-02-26T05:50:47.288Z,37.1
2017-02-26T05:53:19.775Z,37.1
2017-02-26T05:55:52.300Z,37
2017-02-26T05:58:24.796Z,37
2017-02-26T06:00:57.305Z,37.2
2017-02-26T06:03:29.819Z,37.2
2017-02-26T06:06:02.337Z,37.2
2017-02-26T06:08:35.232Z,37.2
2017-02-26T06:11:08.601Z,37.4
2017-02-26T06:13:41.080Z,37.6
2017-02-26T06:16:14.005Z,37.6
2017-02-26T06:18:46.604Z,37.6
2017-02-26T06:21:19.089Z,37.6
2017-02-26T06:23:51.586Z,37.6
2017-02-26T06:26:24.076Z,37.4
2017-02-26T06:28:56.556Z,37.3
2017-02-26T06:31:29.068Z,37.4
2017-02-26T06:34:01.572Z,37.3
2017-02-26T06:36:34.073Z,37.4
2017-02-26T06:39:06.564Z,37.3
2017-02-26T06:41:39.049Z,37.5
2017-02-26T06:45:47.645Z,37.4
2017-02-26T06:53:06.547Z,37.4
2017-02-26T06:55:39.602Z,37.5
2017-02-26T06:58:12.291Z,37.6
2017-02-26T07:00:44.997Z,37.6
2017-02-26T07:03:17.956Z,37.6
2017-02-26T07:05:50.565Z,37.6
2017-02-26T07:08:24.264Z,37.7
2017-02-26T07:10:57.388Z,37.6
2017-02-26T07:13:30.538Z,37.7
2017-02-26T07:16:03.099Z,37.8
2017-02-26T07:18:35.670Z,37.8
2017-02-26T07:21:08.319Z,38
2017-02-26T07:23:40.909Z,37.8
2017-02-26T07:26:13.413Z,37.6
2017-02-26T07:28:45.901Z,37.6
2017-02-26T07:31:18.398Z,37.7
2017-02-26T07:33:51.743Z,37.7
2017-02-26T07:36:24.258Z,37.7
2017-02-26T07:38:56.744Z,37.7
2017-02-26T07:41:29.249Z,37.6
2017-02-26T07:44:01.735Z,37.6
2017-02-26T07:46:34.229Z,37.6
2017-02-26T07:49:07.557Z,37.6
2017-02-26T07:51:40.446Z,37.6
2017-02-26T07:54:12.990Z,37.6
2017-02-26T07:56:45.481Z,37.7
2017-02-26T07:59:17.980Z,37.8
2017-02-26T08:01:50.902Z,37.7
2017-02-26T08:04:23.799Z,37.6
2017-02-26T08:06:56.327Z,37.8
2017-02-26T08:09:29.041Z,37.7
2017-02-26T08:12:01.554Z,37.7
2017-02-26T08:14:34.045Z,37.8
2017-02-26T08:17:06.549Z,37.8
2017-02-26T08:19:39.491Z,37.8
2017-02-26T08:22:12.404Z,37.8
2017-02-26T08:24:44.896Z,37.7
2017-02-26T08:27:17.366Z,37.7
2017-02-26T08:29:49.857Z,37.7
2017-02-26T08:32:22.559Z,37.7
2017-02-26T08:34:55.037Z,37.7
2017-02-26T08:37:27.527Z,37.6
2017-02-26T08:40:00.856Z,37.6
2017-02-26T08:42:33.342Z,37.6
2017-02-26T08:45:05.829Z,37.6
2017-02-26T08:47:38.339Z,37.6
2017-02-26T08:50:11.251Z,37.5
2017-02-26T08:52:43.752Z,37.5
2017-02-26T08:55:16.246Z,37.6
2017-02-26T08:57:49.190Z,37.6
2017-02-26T09:00:21.691Z,37.6
2017-02-26T09:02:55.030Z,37.6
2017-02-26T09:05:27.536Z,37.5
2017-02-26T09:08:00.042Z,37.6
2017-02-26T09:10:32.552Z,37.6
2017-02-26T09:13:05.034Z,37.6
2017-02-26T09:15:37.986Z,37.6
2017-02-26T09:18:10.522Z,37.6
2017-02-26T09:20:43.444Z,37.6
2017-02-26T09:23:15.946Z,37.5
2017-02-26T09:25:48.870Z,37.6
2017-02-26T09:28:21.367Z,37.5
2017-02-26T09:30:53.866Z,37.5
2017-02-26T09:33:26.352Z,37.5
2017-02-26T09:35:58.826Z,37.5
2017-02-26T09:38:31.320Z,37.5
2017-02-26T09:41:03.799Z,37.5
2017-02-26T09:43:36.297Z,37.4
2017-02-26T09:46:08.779Z,37.6
2017-02-26T09:48:41.251Z,37.6
2017-02-26T09:51:13.747Z,37.6
2017-02-26T09:53:46.651Z,37.6
2017-02-26T09:56:19.121Z,37.6
2017-02-26T09:58:52.052Z,37.5
2017-02-26T10:01:24.953Z,37.6
2017-02-26T10:03:57.498Z,37.6
2017-02-26T10:06:29.994Z,37.6
2017-02-26T10:09:02.507Z,37.6
2017-02-26T10:11:34.994Z,37.6
2017-02-26T10:14:07.486Z,37.6
2017-02-26T10:16:39.987Z,37.6
2017-02-26T10:19:12.470Z,37.5
2017-02-26T10:21:45.371Z,37.6
2017-02-26T10:24:18.305Z,37.6
2017-02-26T10:26:50.789Z,37.6
2017-02-26T10:29:23.694Z,37.6
2017-02-26T10:31:56.193Z,37.6
2017-02-26T10:34:28.680Z,37.6
2017-02-26T10:37:01.179Z,37.5
2017-02-26T10:39:34.101Z,37.6
2017-02-26T10:42:06.609Z,37.6
2017-02-26T10:44:39.510Z,37.6
2017-02-26T10:47:12.852Z,37.6
2017-02-26T10:49:45.336Z,37.5
2017-02-26T10:52:17.825Z,37.5
2017-02-26T10:54:50.521Z,37.5
2017-02-26T10:57:23.859Z,37.5
2017-02-26T10:59:56.373Z,37.6
2017-02-26T11:02:29.281Z,37.6
2017-02-26T11:05:02.627Z,37.6
2017-02-26T11:07:35.540Z,37.6
2017-02-26T11:10:08.049Z,37.6
2017-02-26T11:12:40.541Z,37.6
2017-02-26T11:15:13.468Z,37.7
2017-02-26T11:17:46.386Z,37.7
2017-02-26T11:20:19.054Z,38
2017-02-26T11:22:51.724Z,37.7
2017-02-26T11:25:24.242Z,37.6
2017-02-26T11:27:56.762Z,37.7
2017-02-26T11:30:29.255Z,38
2017-02-26T11:33:01.764Z,38.1
2017-02-26T11:35:34.281Z,38.1
2017-02-26T11:38:06.747Z,38.2
2017-02-26T11:40:39.246Z,38.4
2017-02-26T11:43:11.753Z,38.4
2017-02-26T11:45:44.709Z,38.5
2017-02-26T11:48:17.643Z,38.4
2017-02-26T11:50:50.144Z,38.4
2017-02-26T11:53:22.659Z,38.4
2017-02-26T11:55:55.175Z,38.6
2017-02-26T11:58:28.101Z,38.6
2017-02-26T12:01:00.593Z,38.7
2017-02-26T12:03:33.083Z,38.7
2017-02-26T12:06:05.994Z,38.7
2017-02-26T12:08:38.476Z,38.5
2017-02-26T12:11:10.976Z,38.5
2017-02-26T12:13:43.497Z,38.6
2017-02-26T12:16:15.983Z,38.6
2017-02-26T12:18:48.462Z,38.5
2017-02-26T12:21:20.969Z,38.5
2017-02-26T12:23:53.887Z,38.4
2017-02-26T12:26:26.377Z,38.6
2017-02-26T12:28:58.867Z,38.4
2017-02-26T12:31:32.414Z,38.3
2017-02-26T12:34:04.937Z,38.3
2017-02-26T12:36:37.426Z,38.4
2017-02-26T12:39:09.915Z,38.3
2017-02-26T12:41:42.412Z,38.3
2017-02-26T12:44:15.310Z,38.3
2017-02-26T12:46:47.813Z,38.4
2017-02-26T12:49:20.732Z,38.3
2017-02-26T12:51:53.655Z,38.3
2017-02-26T12:54:26.150Z,38.3
2017-02-26T12:56:59.047Z,38.3
2017-02-26T12:59:31.525Z,38.3
2017-02-26T13:02:04.026Z,38.3
2017-02-26T13:04:36.965Z,38.3
2017-02-26T13:07:09.676Z,38.3
2017-02-26T13:09:42.584Z,38.2
2017-02-26T13:12:15.068Z,38.3
2017-02-26T13:14:47.575Z,38.3
2017-02-26T13:17:20.062Z,38.3
2017-02-26T13:19:52.593Z,38.3
2017-02-26T13:22:25.486Z,38.3
2017-02-26T13:24:58.422Z,38.2
2017-02-26T13:27:31.346Z,38.2
2017-02-26T13:30:03.859Z,38.2
2017-02-26T13:32:36.842Z,38.1
2017-02-26T13:35:09.948Z,38
2017-02-26T13:37:42.869Z,38
2017-02-26T13:40:15.365Z,38
2017-02-26T13:42:47.842Z,38
2017-02-26T13:45:20.755Z,38
2017-02-26T13:47:53.670Z,38
2017-02-26T13:50:26.167Z,38
2017-02-26T13:52:58.675Z,38
2017-02-26T13:55:31.158Z,38
2017-02-26T13:58:03.654Z,38
2017-02-26T14:00:36.135Z,37.9
2017-02-26T14:03:08.627Z,38
2017-02-26T14:05:41.111Z,38
2017-02-26T14:08:14.069Z,38.1
2017-02-26T14:10:46.758Z,38.1
2017-02-26T14:13:19.259Z,38.1
2017-02-26T14:15:51.751Z,38.2
2017-02-26T14:18:24.258Z,38.2
2017-02-26T14:20:56.738Z,38.1
2017-02-26T14:23:29.241Z,38.1
2017-02-26T14:26:01.736Z,38.2
2017-02-26T14:28:34.308Z,38.2
2017-02-26T14:31:06.792Z,38.2
2017-02-26T14:33:39.806Z,38.2
2017-02-26T14:36:13.576Z,38.3
2017-02-26T14:38:46.090Z,38.4
2017-02-26T14:41:18.579Z,38.3
2017-02-26T14:43:51.493Z,38.4
2017-02-26T14:46:23.969Z,38.5
2017-02-26T14:48:56.477Z,38.8
2017-02-26T14:51:28.977Z,38.5
2017-02-26T14:54:01.469Z,38.6
2017-02-26T14:56:34.384Z,38.6
2017-02-26T14:59:06.868Z,38.4
2017-02-26T15:01:39.368Z,38.6
2017-02-26T15:04:17.192Z,38.4
2017-02-26T15:06:50.541Z,38.5
2017-02-26T15:09:23.238Z,38.4
2017-02-26T15:11:55.731Z,38.5
2017-02-26T15:14:28.652Z,38.5
2017-02-26T15:17:01.147Z,38.4
2017-02-26T15:19:33.675Z,38.5
2017-02-26T15:22:07.085Z,38.5
2017-02-26T15:24:39.670Z,38.8
2017-02-26T15:27:13.071Z,38.7
2017-02-26T15:29:45.577Z,38.8
2017-02-26T15:32:18.063Z,38.8
2017-02-26T15:34:50.581Z,39
2017-02-26T15:37:23.086Z,38.8
2017-02-26T15:39:55.568Z,38.8
2017-02-26T15:42:28.064Z,38.9
2017-02-26T15:45:00.567Z,38.8
2017-02-26T15:47:33.063Z,38.8
2017-02-26T15:50:05.549Z,38.8
2017-02-26T15:52:38.032Z,38.8
2017-02-26T15:55:10.517Z,38.8
2017-02-26T15:57:43.040Z,38.8
2017-02-26T16:00:15.533Z,38.8
2017-02-26T16:02:48.879Z,38.8
2017-02-26T16:05:21.356Z,38.8
2017-02-26T16:07:53.860Z,38.8
2017-02-26T16:10:26.783Z,38.8
2017-02-26T16:12:59.688Z,38.7
2017-02-26T16:15:32.176Z,38.7
2017-02-26T16:18:05.100Z,38.7
2017-02-26T16:20:38.438Z,38.8
2017-02-26T16:23:10.941Z,38.9
2017-02-26T16:25:43.427Z,38.8
2017-02-26T16:28:16.366Z,38.7
2017-02-26T16:30:49.447Z,38.8
2017-02-26T16:33:22.556Z,38.8
2017-02-26T16:35:55.065Z,38.8
2017-02-26T16:38:27.792Z,38.7
2017-02-26T16:41:00.808Z,38.6
2017-02-26T16:43:34.044Z,38.7
2017-02-26T16:46:07.130Z,38.5
2017-02-26T16:48:39.667Z,38.6
2017-02-26T16:51:12.148Z,38.6
2017-02-26T16:53:45.135Z,38.7
2017-02-26T16:56:17.650Z,38.7
2017-02-26T16:58:50.692Z,38.7
2017-02-26T17:01:23.275Z,38.7
2017-02-26T17:03:55.758Z,38.6
2017-02-26T17:06:28.265Z,38.6
2017-02-26T17:09:00.754Z,38.7
2017-02-26T17:11:33.272Z,38.8
2017-02-26T17:14:05.759Z,38.9
2017-02-26T17:16:38.667Z,39.2
2017-02-26T17:19:11.172Z,39.3
2017-02-26T17:21:44.087Z,39.2
2017-02-26T17:24:16.585Z,39.3
2017-02-26T17:26:49.527Z,39.4
2017-02-26T17:29:22.040Z,39.4
2017-02-26T17:31:54.529Z,39.5
2017-02-26T17:34:27.472Z,39.5
2017-02-26T17:37:00.377Z,39.5
2017-02-26T17:39:33.277Z,39.5
2017-02-26T17:42:05.764Z,39.5
2017-02-26T17:44:38.673Z,39.5
2017-02-26T17:47:11.175Z,39.6
2017-02-26T17:49:43.691Z,39.4
2017-02-26T17:52:16.213Z,39.5
2017-02-26T17:54:48.699Z,39.5
2017-02-26T17:57:21.195Z,39.4
2017-02-26T17:59:53.700Z,39.5
2017-02-26T18:02:26.189Z,39.4
2017-02-26T18:04:58.679Z,39.4
2017-02-26T18:07:31.175Z,39.4
2017-02-26T18:10:03.664Z,39.3
2017-02-26T18:12:36.170Z,39.4
2017-02-26T18:15:08.658Z,39.4
2017-02-26T18:17:41.564Z,39.4
2017-02-26T18:20:14.119Z,39.4
2017-02-26T18:22:46.628Z,39.3
2017-02-26T18:25:19.124Z,39.3
2017-02-26T18:27:51.638Z,39.3
2017-02-26T18:30:24.550Z,39.4
2017-02-26T18:32:57.033Z,39.3
2017-02-26T18:35:29.528Z,39.3
2017-02-26T18:38:02.014Z,39.4
2017-02-26T18:40:34.929Z,39.4
2017-02-26T18:43:07.437Z,39.4
2017-02-26T18:45:40.336Z,39.4
2017-02-26T18:48:13.281Z,39.4
2017-02-26T18:50:46.187Z,39.5
2017-02-26T18:53:18.682Z,39.4
2017-02-26T18:55:51.572Z,39.4
2017-02-26T18:58:24.484Z,39.4
2017-02-26T19:00:57.426Z,39.4
2017-02-26T19:03:30.360Z,39.4
2017-02-26T19:06:03.270Z,39.4
2017-02-26T19:08:35.756Z,39.5
2017-02-26T19:11:08.667Z,39.4
2017-02-26T19:13:41.168Z,39.4
2017-02-26T19:16:13.668Z,39.4
2017-02-26T19:18:46.564Z,39.4
2017-02-26T19:21:19.057Z,39.4
2017-02-26T19:23:51.575Z,39.3
2017-02-26T19:26:24.051Z,39.3
2017-02-26T19:28:56.556Z,39.2
2017-02-26T19:31:29.028Z,39.2
2017-02-26T19:34:01.948Z,39.4
2017-02-26T19:36:35.285Z,39.5
2017-02-26T19:39:07.770Z,39.6
2017-02-26T19:41:40.260Z,39.7
2017-02-26T19:44:13.613Z,39.7
2017-02-26T19:46:46.131Z,39.7
2017-02-26T19:49:18.626Z,39.6
2017-02-26T19:51:51.098Z,39.6
2017-02-26T19:54:24.032Z,39.7
2017-02-26T19:56:56.520Z,39.6
2017-02-26T19:59:29.647Z,39.6
2017-02-26T20:02:02.136Z,39.6
2017-02-26T20:04:35.069Z,39.6
2017-02-26T20:07:07.549Z,39.7
2017-02-26T20:09:40.466Z,39.7
2017-02-26T20:12:13.389Z,39.6
2017-02-26T20:14:46.323Z,39.7
2017-02-26T20:17:18.821Z,39.7
2017-02-26T20:19:51.327Z,39.7
2017-02-26T20:22:24.414Z,39.7
2017-02-26T20:24:57.328Z,39.8
2017-02-26T20:27:29.824Z,39.7
2017-02-26T20:30:03.140Z,39.7
2017-02-26T20:32:35.631Z,39.7
2017-02-26T20:35:08.120Z,39.6
2017-02-26T20:37:40.609Z,39.8
2017-02-26T20:40:13.106Z,39.7
2017-02-26T20:42:45.597Z,39.8
2017-02-26T20:45:18.089Z,39.8
2017-02-26T20:47:50.583Z,39.7
2017-02-26T20:50:23.078Z,39.8
2017-02-26T20:52:55.559Z,39.7
2017-02-26T20:55:28.059Z,39.8
2017-02-26T20:58:00.556Z,39.8
2017-02-26T21:00:33.246Z,39.7
2017-02-26T21:03:05.742Z,39.7
2017-02-26T21:05:38.255Z,39.8
2017-02-26T21:08:11.346Z,39.8
2017-02-26T21:10:44.249Z,39.8
2017-02-26T21:13:16.734Z,39.7
2017-02-26T21:15:50.272Z,39.7
2017-02-26T21:18:23.191Z,39.7
2017-02-26T21:20:55.694Z,39.8
2017-02-26T21:23:28.175Z,39.7
2017-02-26T21:26:00.675Z,39.8
2017-02-26T21:28:33.162Z,39.8
2017-02-26T21:31:05.663Z,39.4
2017-02-26T21:33:38.143Z,39.4
2017-02-26T21:36:10.633Z,39.4
2017-02-26T21:38:43.153Z,39.6
2017-02-26T21:41:15.640Z,39.6
2017-02-26T21:43:48.548Z,39.6
2017-02-26T21:46:21.039Z,39.6
2017-02-26T21:48:54.606Z,39.6
2017-02-26T21:51:27.086Z,39.6
2017-02-26T21:54:00.861Z,39.6
2017-02-26T21:56:33.785Z,39.6
2017-02-26T21:59:06.281Z,39.6
2017-02-26T22:01:39.206Z,39.6
2017-02-26T22:04:11.706Z,39.6
2017-02-26T22:06:44.201Z,39.6
2017-02-26T22:09:17.138Z,39.6
2017-02-26T22:11:50.039Z,39.6
2017-02-26T22:14:22.979Z,39.5
2017-02-26T22:16:55.478Z,39.6
2017-02-26T22:19:28.392Z,39.5
2017-02-26T22:22:00.916Z,39.6
2017-02-26T22:24:33.416Z,39.6
2017-02-26T22:27:05.899Z,39.5
2017-02-26T22:29:38.431Z,39.6
2017-02-26T22:32:11.364Z,39.5
2017-02-26T22:34:43.878Z,39.5
2017-02-26T22:37:16.376Z,39.5
2017-02-26T22:39:49.308Z,39.6
2017-02-26T22:42:21.810Z,39.5
2017-02-26T22:44:54.330Z,39.6
2017-02-26T22:47:26.812Z,39.6
2017-02-26T22:49:59.722Z,39.6
2017-02-26T22:52:32.208Z,39.6
2017-02-26T22:55:04.692Z,39.5
2017-02-26T22:57:37.179Z,39.6
2017-02-26T23:00:09.700Z,39.5
2017-02-26T23:02:42.186Z,39.5
2017-02-26T23:05:14.681Z,39.5
2017-02-26T23:07:47.167Z,39.5
2017-02-26T23:10:20.094Z,39.5
2017-02-26T23:12:52.570Z,39.6
2017-02-26T23:15:25.056Z,39.5
2017-02-26T23:17:57.559Z,39.5
2017-02-26T23:20:30.470Z,39.6
2017-02-26T23:23:02.971Z,39.4
2017-02-26T23:25:35.461Z,39.6
2017-02-26T23:28:08.357Z,39.6
2017-02-26T23:30:40.853Z,39.5
2017-02-26T23:33:13.321Z,39.3
2017-02-26T23:35:46.223Z,39.5
2017-02-26T23:38:18.708Z,39.5
2017-02-26T23:40:51.214Z,39.5
2017-02-26T23:43:23.705Z,39.5
2017-02-26T23:45:56.203Z,39.5
2017-02-26T23:48:28.709Z,39.5
2017-02-26T23:51:01.209Z,39.3
2017-02-26T23:53:33.710Z,39.5
2017-02-26T23:56:06.209Z,39.5
2017-02-26T23:58:39.147Z,39.4
